Time;durP1;ratioP1;P1;durP2;ratioP2;P2;SDS_P1;SDS_P2;PMS_P1;PMS_P2;Temp;Humidity;BMP_temperature;BMP_pressure;BME280_temperature;BME280_humidity;BME280_pressure;Samples;Min_cycle;Max_cycle;Signal;HPM_P1;HPM_P2
2021/05/05 00:01:16;;;;;;;10.80;1.30;;;13.60;99.90;;;;;;20563988;28;20215;-74
2021/05/05 00:11:19;;;;;;;0.50;0.50;;;13.70;99.90;;;;;;20625969;28;20231;-74
2021/05/05 00:21:23;;;;;;;0.70;0.70;;;14.00;99.90;;;;;;20624866;28;20634;-74
2021/05/05 00:31:26;;;;;;;0.90;0.70;;;13.90;99.90;;;;;;20603093;28;20223;-75
2021/05/05 00:41:30;;;;;;;0.70;0.43;;;13.80;99.90;;;;;;20543055;28;20541;-74
2021/05/05 00:51:34;;;;;;;1.70;0.93;;;13.60;99.90;;;;;;20540362;28;20224;-74
2021/05/05 01:01:40;;;;;;;0.40;0.40;;;13.10;99.90;;;;;;20563119;28;20528;-76
2021/05/05 01:11:44;;;;;;;0.60;0.60;;;13.00;99.90;;;;;;20623812;28;20297;-74
2021/05/05 01:21:48;;;;;;;0.33;0.33;;;12.90;99.90;;;;;;20621990;28;20203;-75
2021/05/05 01:31:50;;;;;;;0.53;0.53;;;12.90;99.90;;;;;;20614703;28;20216;-74
2021/05/05 01:41:54;;;;;;;0.77;0.53;;;13.00;99.90;;;;;;20540713;28;20204;-74
2021/05/05 01:52:01;;;;;;;0.73;0.73;;;12.80;99.90;;;;;;20540606;28;20227;-75
2021/05/05 02:02:04;;;;;;;0.83;0.47;;;12.80;99.90;;;;;;20544559;28;20201;-76
2021/05/05 02:12:08;;;;;;;0.20;0.20;;;12.90;99.90;;;;;;20619161;28;20674;-73
2021/05/05 02:22:12;;;;;;;1.50;1.13;;;12.80;99.90;;;;;;20585093;28;20265;-75
2021/05/05 02:32:19;;;;;;;0.30;0.30;;;12.90;99.90;;;;;;20627366;28;20255;-74
2021/05/05 02:42:23;;;;;;;1.03;0.53;;;13.30;99.90;;;;;;20617618;28;20671;-77
2021/05/05 02:52:25;;;;;;;2.57;0.97;;;13.30;99.90;;;;;;20613666;28;20227;-77
2021/05/05 03:02:29;;;;;;;1.17;0.60;;;13.30;99.90;;;;;;20605870;23;20712;-71
2021/05/05 03:12:32;;;;;;;1.60;0.83;;;13.10;99.90;;;;;;20612151;28;20229;-72
2021/05/05 03:22:36;;;;;;;0.70;0.70;;;12.80;99.90;;;;;;20611636;28;20228;-71
2021/05/05 03:32:39;;;;;;;0.57;0.57;;;12.90;99.90;;;;;;20593538;28;20651;-71
2021/05/05 03:42:43;;;;;;;0.70;0.70;;;13.20;99.90;;;;;;20590955;28;20200;-70
2021/05/05 03:52:46;;;;;;;2.73;0.83;;;13.20;99.90;;;;;;20610324;28;20223;-70
2021/05/05 04:02:49;;;;;;;0.30;0.30;;;13.30;99.90;;;;;;20620707;23;20696;-79
2021/05/05 04:12:53;;;;;;;0.70;0.70;;;13.90;99.90;;;;;;20592366;28;20227;-77
2021/05/05 04:23:15;;;;;;;1.00;0.60;;;14.00;99.90;;;;;;20609786;28;20554;-77
2021/05/05 04:33:39;;;;;;;0.83;0.83;;;14.10;99.90;;;;;;20295638;29;20230;-77
2021/05/05 04:43:43;;;;;;;1.73;0.73;;;14.20;99.90;;;;;;20295266;29;20349;-81
2021/05/05 04:53:47;;;;;;;1.17;1.07;;;14.30;99.90;;;;;;20277651;29;20241;-82
2021/05/05 05:03:51;;;;;;;4.07;1.30;;;14.40;99.90;;;;;;20638448;28;20276;-79
2021/05/05 05:13:54;;;;;;;1.97;1.20;;;14.50;99.90;;;;;;20784910;28;20224;-79
2021/05/05 05:23:58;;;;;;;1.23;1.07;;;14.60;99.90;;;;;;20766584;28;20671;-76
2021/05/05 05:34:00;;;;;;;0.73;0.73;;;14.90;99.90;;;;;;20781338;28;20622;-75
2021/05/05 05:44:05;;;;;;;1.63;1.13;;;15.30;99.90;;;;;;20761137;28;20198;-75
2021/05/05 05:54:08;;;;;;;1.43;0.90;;;15.50;99.90;;;;;;20694521;28;20221;-80
2021/05/05 06:04:12;;;;;;;3.50;1.40;;;15.60;99.90;;;;;;20737501;28;20222;-76
2021/05/05 06:14:16;;;;;;;0.63;0.63;;;15.80;99.90;;;;;;20776964;28;20238;-79
2021/05/05 06:24:20;;;;;;;0.40;0.40;;;16.10;99.90;;;;;;20793550;28;20200;-78
2021/05/05 06:34:23;;;;;;;1.73;1.63;;;16.50;99.90;;;;;;20764318;28;20238;-80
2021/05/05 06:44:27;;;;;;;0.77;0.67;;;16.80;99.90;;;;;;20679488;28;20660;-73
2021/05/05 06:54:30;;;;;;;1.40;0.97;;;17.10;99.90;;;;;;20682679;28;20218;-85
2021/05/05 07:04:34;;;;;;;0.50;0.50;;;17.50;99.90;;;;;;20702592;28;20222;-81
2021/05/05 07:14:37;;;;;;;1.17;0.80;;;18.00;99.90;;;;;;20678414;28;20218;-78
2021/05/05 07:24:44;;;;;;;2.67;1.97;;;18.20;99.90;;;;;;20676890;28;20294;-81
2021/05/05 07:34:48;;;;;;;1.37;0.70;;;18.40;99.90;;;;;;20674785;28;20230;-83
2021/05/05 07:45:11;;;;;;;3.17;2.13;;;17.70;99.90;;;;;;20694451;28;20289;-80
2021/05/05 07:55:14;;;;;;;4.33;1.97;;;17.70;99.90;;;;;;20698203;28;20588;-80
2021/05/05 08:05:17;;;;;;;3.07;1.20;;;17.20;99.90;;;;;;20754771;28;20336;-82
2021/05/05 08:15:23;;;;;;;4.67;3.03;;;17.50;99.90;;;;;;20752815;28;20223;-84
2021/05/05 08:25:26;;;;;;;2.53;2.27;;;17.60;99.90;;;;;;20710300;28;20195;-84
2021/05/05 08:35:32;;;;;;;1.30;1.20;;;17.30;99.90;;;;;;20671816;28;20237;-85
2021/05/05 08:45:36;;;;;;;4.63;2.93;;;17.30;99.90;;;;;;20695546;28;20269;-83
2021/05/05 08:55:42;;;;;;;0.90;0.90;;;17.20;99.90;;;;;;20706691;28;20248;-81
2021/05/05 09:05:49;;;;;;;1.47;1.00;;;17.60;99.90;;;;;;20745327;28;20237;-78
2021/05/05 09:16:07;;;;;;;0.90;0.90;;;17.50;99.90;;;;;;20706716;28;20230;-84
2021/05/05 09:26:15;;;;;;;1.17;0.77;;;17.90;99.90;;;;;;20718162;28;20199;-85
2021/05/05 09:36:40;;;;;;;1.60;1.00;;;17.80;99.90;;;;;;20668224;28;20573;-81
2021/05/05 09:46:50;;;;;;;1.07;0.67;;;18.60;99.90;;;;;;20700029;28;20604;-78
2021/05/05 09:56:54;;;;;;;1.37;1.27;;;18.70;99.90;;;;;;20700715;28;20961;-86
2021/05/05 10:07:01;;;;;;;3.83;1.53;;;19.00;99.90;;;;;;20617902;28;20226;-82
2021/05/05 10:17:07;;;;;;;1.50;1.40;;;19.00;99.90;;;;;;20604660;28;20246;-82
2021/05/05 10:27:26;;;;;;;2.57;2.27;;;19.70;99.90;;;;;;20615899;28;20195;-77
2021/05/05 10:37:43;;;;;;;1.50;1.40;;;19.90;99.90;;;;;;20616305;28;20293;-80
2021/05/05 10:48:10;;;;;;;4.00;1.73;;;20.40;99.90;;;;;;20617188;28;20670;-78
2021/05/05 10:58:23;;;;;;;4.27;2.53;;;20.50;99.90;;;;;;20598721;28;20245;-83
2021/05/05 11:08:30;;;;;;;2.30;1.17;;;20.70;99.90;;;;;;20614210;28;20474;-84
2021/05/05 11:18:43;;;;;;;2.30;1.07;;;21.50;99.90;;;;;;20616262;28;20219;-70
2021/05/05 11:28:56;;;;;;;2.67;0.80;;;21.80;99.90;;;;;;20583714;28;20709;-85
2021/05/05 11:39:02;;;;;;;1.77;1.40;;;22.50;99.90;;;;;;20536699;28;20277;-85
2021/05/05 11:49:05;;;;;;;0.80;0.40;;;22.70;99.90;;;;;;20605206;28;20227;-75
2021/05/05 11:59:09;;;;;;;0.50;0.50;;;22.80;99.90;;;;;;20641989;28;20580;-78
2021/05/05 12:09:29;;;;;;;1.70;1.17;;;23.20;99.90;;;;;;20803973;28;20241;-71
2021/05/05 12:19:32;;;;;;;11.03;0.93;;;23.70;99.90;;;;;;20714979;28;20198;-80
2021/05/05 12:29:38;;;;;;;1.85;0.98;;;23.60;99.90;;;;;;20717080;28;20491;-75
2021/05/05 12:39:46;;;;;;;0.70;0.65;;;24.60;99.90;;;;;;20680835;28;20640;-80
2021/05/05 12:50:02;;;;;;;0.80;0.52;;;25.10;99.90;;;;;;20631645;28;20198;-74
2021/05/05 13:00:07;;;;;;;13.05;0.90;;;25.20;99.90;;;;;;20711335;28;20222;-72
2021/05/05 13:10:13;;;;;;;0.93;0.93;;;24.70;99.90;;;;;;20785050;28;20202;-81
2021/05/05 13:30:45;;;;;;;0.83;0.83;;;25.00;99.90;;;;;;20665974;28;20294;-78
2021/05/05 13:40:50;;;;;;;5.53;1.37;;;23.20;99.90;;;;;;20618412;23;20759;-80
2021/05/05 13:50:58;;;;;;;2.35;0.90;;;23.00;99.90;;;;;;20616606;28;20228;-78
2021/05/05 14:01:01;;;;;;;0.98;0.50;;;24.50;99.90;;;;;;20618384;28;20219;-75
2021/05/05 14:11:05;;;;;;;10.95;0.85;;;25.90;99.90;;;;;;20600308;28;20209;-82
2021/05/05 14:32:16;;;;;;;1.17;1.02;;;26.30;99.90;;;;;;20908257;23;20242;-76
2021/05/05 14:54:24;;;;;;;1.50;0.65;;;27.10;99.90;;;;;;20329305;23;20568;-78
2021/05/05 15:04:29;;;;;;;1.25;1.15;;;27.50;99.90;;;;;;20610074;28;20276;-81
2021/05/05 15:35:39;;;;;;;0.55;0.55;;;27.50;99.90;;;;;;20519627;28;20412;-78
2021/05/05 15:46:11;;;;;;;0.90;0.63;;;26.30;99.90;;;;;;20590869;28;20227;-74
2021/05/05 15:56:16;;;;;;;1.35;1.25;;;25.60;99.90;;;;;;20619178;23;20231;-80
2021/05/05 16:18:06;;;;;;;0.93;0.63;;;23.20;99.90;;;;;;20565691;23;20310;-76
2021/05/05 16:28:31;;;;;;;0.63;0.60;;;22.60;99.90;;;;;;20546161;28;20227;-74
2021/05/05 16:49:04;;;;;;;0.80;0.77;;;21.40;99.90;;;;;;20608722;28;20239;-77
2021/05/05 17:09:44;;;;;;;1.20;1.13;;;22.20;99.90;;;;;;20618475;28;20266;-76
2021/05/05 17:19:53;;;;;;;1.30;0.80;;;23.80;99.90;;;;;;20626631;28;20618;-82
2021/05/05 17:30:07;;;;;;;0.87;0.60;;;24.50;99.90;;;;;;20592511;28;20663;-81
2021/05/05 18:11:35;;;;;;;0.73;0.73;;;20.50;99.90;;;;;;20535395;28;20698;-81
2021/05/05 20:53:05;;;;;;;0.67;0.67;;;16.80;99.90;;;;;;20576180;28;20558;-80
2021/05/05 23:29:11;;;;;;;0.30;0.23;;;14.90;99.90;;;;;;20593452;28;20385;-78
